sensor_id;sensor_type;location;lat;lon;timestamp;P1;durP1;ratioP1;P2;durP2;ratioP2
74849;SDS011;63397;47.480;19.238;2022-09-09T09:30:19;2.47;;;1.20;;
74849;SDS011;63397;47.480;19.238;2022-09-09T09:39:07;1.67;;;1.13;;
74849;SDS011;63397;47.480;19.238;2022-09-09T09:42:33;1.60;;;1.02;;
74849;SDS011;63397;47.480;19.238;2022-09-09T09:45:43;2.05;;;1.17;;
74849;SDS011;63397;47.480;19.238;2022-09-09T09:55:44;3.92;;;1.48;;
74849;SDS011;63397;47.480;19.238;2022-09-09T09:59:34;4.80;;;1.25;;
74849;SDS011;63397;47.480;19.238;2022-09-09T10:02:59;3.38;;;1.35;;
74849;SDS011;63397;47.480;19.238;2022-09-09T10:06:06;4.25;;;1.40;;
74849;SDS011;63397;47.480;19.238;2022-09-09T10:09:21;2.73;;;1.33;;
74849;SDS011;63397;47.480;19.238;2022-09-09T10:12:30;3.03;;;1.30;;
74849;SDS011;63397;47.480;19.238;2022-09-09T10:28:25;1.60;;;0.90;;
74849;SDS011;63397;47.480;19.238;2022-09-09T10:31:40;2.08;;;1.20;;
74849;SDS011;63397;47.480;19.238;2022-09-09T10:34:56;2.17;;;1.25;;
74849;SDS011;63397;47.480;19.238;2022-09-09T10:38:52;2.75;;;1.17;;
74849;SDS011;63397;47.480;19.238;2022-09-09T10:41:38;1.83;;;0.90;;
74849;SDS011;63397;47.480;19.238;2022-09-09T10:47:55;2.53;;;1.10;;
74849;SDS011;63397;47.480;19.238;2022-09-09T10:51:04;1.80;;;0.95;;
74849;SDS011;63397;47.480;19.238;2022-09-09T10:57:43;2.97;;;1.10;;
74849;SDS011;63397;47.480;19.238;2022-09-09T11:00:55;2.30;;;1.20;;
74849;SDS011;63397;47.480;19.238;2022-09-09T11:04:05;2.55;;;1.48;;
74849;SDS011;63397;47.480;19.238;2022-09-09T11:07:29;2.65;;;1.10;;
74849;SDS011;63397;47.480;19.238;2022-09-09T11:16:58;2.35;;;1.23;;
74849;SDS011;63397;47.480;19.238;2022-09-09T11:20:04;2.20;;;1.10;;
74849;SDS011;63397;47.480;19.238;2022-09-09T11:23:10;2.53;;;1.35;;
74849;SDS011;63397;47.480;19.238;2022-09-09T11:26:18;2.92;;;1.50;;
74849;SDS011;63397;47.480;19.238;2022-09-09T11:32:51;2.60;;;1.30;;
74849;SDS011;63397;47.480;19.238;2022-09-09T11:42:21;5.45;;;1.33;;
74849;SDS011;63397;47.480;19.238;2022-09-09T11:45:25;2.73;;;1.20;;
74849;SDS011;63397;47.480;19.238;2022-09-09T11:51:36;2.90;;;1.10;;
74849;SDS011;63397;47.480;19.238;2022-09-09T11:54:46;2.85;;;1.23;;
74849;SDS011;63397;47.480;19.238;2022-09-09T11:57:57;1.90;;;1.20;;
74849;SDS011;63397;47.480;19.238;2022-09-09T12:00:59;2.33;;;1.10;;
74849;SDS011;63397;47.480;19.238;2022-09-09T12:13:22;2.67;;;1.10;;
74849;SDS011;63397;47.480;19.238;2022-09-09T12:16:30;3.63;;;1.03;;
74849;SDS011;63397;47.480;19.238;2022-09-09T12:19:34;2.15;;;1.10;;
74849;SDS011;63397;47.480;19.238;2022-09-09T12:32:16;2.07;;;0.90;;
74849;SDS011;63397;47.480;19.238;2022-09-09T12:35:22;1.70;;;1.05;;
74849;SDS011;63397;47.480;19.238;2022-09-09T12:38:31;2.22;;;1.20;;
74849;SDS011;63397;47.480;19.238;2022-09-09T12:41:40;2.53;;;1.30;;
74849;SDS011;63397;47.480;19.238;2022-09-09T12:44:50;2.25;;;1.10;;
74849;SDS011;63397;47.480;19.238;2022-09-09T12:48:03;2.03;;;1.30;;
74849;SDS011;63397;47.480;19.238;2022-09-09T12:51:27;1.90;;;1.20;;
74849;SDS011;63397;47.480;19.238;2022-09-09T12:54:33;2.28;;;1.33;;
74849;SDS011;63397;47.480;19.238;2022-09-09T12:57:38;2.78;;;1.00;;
74849;SDS011;63397;47.480;19.238;2022-09-09T13:00:52;2.40;;;1.10;;
74849;SDS011;63397;47.480;19.238;2022-09-09T13:03:58;2.23;;;1.00;;
74849;SDS011;63397;47.480;19.238;2022-09-09T13:07:07;3.15;;;1.10;;
74849;SDS011;63397;47.480;19.238;2022-09-09T13:10:19;3.10;;;1.33;;
74849;SDS011;63397;47.480;19.238;2022-09-09T13:13:39;3.58;;;1.17;;
74849;SDS011;63397;47.480;19.238;2022-09-09T13:16:41;2.33;;;1.38;;
74849;SDS011;63397;47.480;19.238;2022-09-09T13:19:47;2.87;;;1.40;;
74849;SDS011;63397;47.480;19.238;2022-09-09T13:22:52;1.80;;;1.20;;
74849;SDS011;63397;47.480;19.238;2022-09-09T13:25:59;1.92;;;1.30;;
74849;SDS011;63397;47.480;19.238;2022-09-09T13:29:16;2.50;;;1.27;;
74849;SDS011;63397;47.480;19.238;2022-09-09T13:32:20;2.03;;;1.40;;
74849;SDS011;63397;47.480;19.238;2022-09-09T13:35:23;2.53;;;1.50;;
74849;SDS011;63397;47.480;19.238;2022-09-09T13:38:27;2.25;;;1.65;;
74849;SDS011;63397;47.480;19.238;2022-09-09T13:41:32;2.20;;;1.50;;
74849;SDS011;63397;47.480;19.238;2022-09-09T13:44:36;2.97;;;1.40;;
74849;SDS011;63397;47.480;19.238;2022-09-09T13:47:39;4.32;;;1.85;;
74849;SDS011;63397;47.480;19.238;2022-09-09T13:50:41;4.67;;;1.50;;
74849;SDS011;63397;47.480;19.238;2022-09-09T13:53:45;3.75;;;1.30;;
74849;SDS011;63397;47.480;19.238;2022-09-09T13:56:47;2.25;;;1.30;;
74849;SDS011;63397;47.480;19.238;2022-09-09T13:59:52;2.38;;;1.25;;
74849;SDS011;63397;47.480;19.238;2022-09-09T14:03:06;1.83;;;1.23;;
74849;SDS011;63397;47.480;19.238;2022-09-09T14:06:10;2.60;;;1.30;;
74849;SDS011;63397;47.480;19.238;2022-09-09T14:09:13;2.55;;;1.30;;
74849;SDS011;63397;47.480;19.238;2022-09-09T14:12:19;3.13;;;1.60;;
74849;SDS011;63397;47.480;19.238;2022-09-09T14:15:22;3.33;;;1.30;;
74849;SDS011;63397;47.480;19.238;2022-09-09T14:18:24;2.38;;;1.10;;
74849;SDS011;63397;47.480;19.238;2022-09-09T14:21:27;4.33;;;1.30;;
74849;SDS011;63397;47.480;19.238;2022-09-09T14:24:30;2.08;;;1.20;;
74849;SDS011;63397;47.480;19.238;2022-09-09T14:27:32;3.42;;;1.38;;
74849;SDS011;63397;47.480;19.238;2022-09-09T14:30:35;2.17;;;1.13;;
74849;SDS011;63397;47.480;19.238;2022-09-09T14:33:38;2.53;;;1.10;;
74849;SDS011;63397;47.480;19.238;2022-09-09T14:36:40;2.63;;;1.30;;
74849;SDS011;63397;47.480;19.238;2022-09-09T14:39:43;2.13;;;1.33;;
74849;SDS011;63397;47.480;19.238;2022-09-09T14:42:49;2.17;;;1.45;;
74849;SDS011;63397;47.480;19.238;2022-09-09T14:45:51;2.70;;;1.10;;
74849;SDS011;63397;47.480;19.238;2022-09-09T14:48:53;3.25;;;1.30;;
74849;SDS011;63397;47.480;19.238;2022-09-09T14:51:55;2.13;;;1.20;;
74849;SDS011;63397;47.480;19.238;2022-09-09T14:54:57;2.45;;;1.20;;
74849;SDS011;63397;47.480;19.238;2022-09-09T14:58:00;2.83;;;1.33;;
74849;SDS011;63397;47.480;19.238;2022-09-09T15:01:05;3.28;;;1.38;;
74849;SDS011;63397;47.480;19.238;2022-09-09T15:04:10;3.28;;;1.48;;
74849;SDS011;63397;47.480;19.238;2022-09-09T15:07:13;3.57;;;1.53;;
74849;SDS011;63397;47.480;19.238;2022-09-09T15:10:16;2.28;;;1.20;;
74849;SDS011;63397;47.480;19.238;2022-09-09T15:13:19;2.45;;;1.35;;
74849;SDS011;63397;47.480;19.238;2022-09-09T15:16:22;3.03;;;1.40;;
74849;SDS011;63397;47.480;19.238;2022-09-09T15:19:24;2.38;;;1.30;;
74849;SDS011;63397;47.480;19.238;2022-09-09T15:22:26;1.83;;;1.00;;
74849;SDS011;63397;47.480;19.238;2022-09-09T15:25:28;4.40;;;1.40;;
74849;SDS011;63397;47.480;19.238;2022-09-09T15:28:31;2.15;;;1.50;;
74849;SDS011;63397;47.480;19.238;2022-09-09T15:31:33;3.10;;;1.80;;
74849;SDS011;63397;47.480;19.238;2022-09-09T15:34:36;7.35;;;1.70;;
74849;SDS011;63397;47.480;19.238;2022-09-09T15:37:38;3.83;;;1.70;;
74849;SDS011;63397;47.480;19.238;2022-09-09T15:40:40;4.35;;;1.52;;
74849;SDS011;63397;47.480;19.238;2022-09-09T15:43:43;3.75;;;1.80;;
74849;SDS011;63397;47.480;19.238;2022-09-09T15:46:49;3.13;;;1.60;;
74849;SDS011;63397;47.480;19.238;2022-09-09T15:49:52;5.43;;;1.65;;
74849;SDS011;63397;47.480;19.238;2022-09-09T15:52:54;3.73;;;1.50;;
74849;SDS011;63397;47.480;19.238;2022-09-09T15:55:57;2.42;;;1.50;;
74849;SDS011;63397;47.480;19.238;2022-09-09T15:58:59;3.20;;;1.48;;
74849;SDS011;63397;47.480;19.238;2022-09-09T16:02:02;5.10;;;1.80;;
74849;SDS011;63397;47.480;19.238;2022-09-09T16:05:05;2.70;;;1.60;;
74849;SDS011;63397;47.480;19.238;2022-09-09T16:08:07;4.23;;;1.70;;
74849;SDS011;63397;47.480;19.238;2022-09-09T16:14:13;2.47;;;1.65;;
74849;SDS011;63397;47.480;19.238;2022-09-09T16:17:17;3.40;;;1.70;;
74849;SDS011;63397;47.480;19.238;2022-09-09T16:20:20;5.00;;;1.70;;
74849;SDS011;63397;47.480;19.238;2022-09-09T16:23:23;2.93;;;1.40;;
74849;SDS011;63397;47.480;19.238;2022-09-09T16:26:28;4.45;;;1.50;;
74849;SDS011;63397;47.480;19.238;2022-09-09T16:29:30;3.17;;;1.60;;
74849;SDS011;63397;47.480;19.238;2022-09-09T16:32:32;5.07;;;1.73;;
74849;SDS011;63397;47.480;19.238;2022-09-09T16:35:36;3.03;;;1.60;;
74849;SDS011;63397;47.480;19.238;2022-09-09T16:38:40;3.83;;;1.43;;
74849;SDS011;63397;47.480;19.238;2022-09-09T16:41:43;4.88;;;1.77;;
74849;SDS011;63397;47.480;19.238;2022-09-09T16:44:46;8.02;;;1.80;;
74849;SDS011;63397;47.480;19.238;2022-09-09T16:47:48;4.70;;;1.70;;
74849;SDS011;63397;47.480;19.238;2022-09-09T16:50:51;4.20;;;1.65;;
74849;SDS011;63397;47.480;19.238;2022-09-09T16:53:53;3.97;;;1.83;;
74849;SDS011;63397;47.480;19.238;2022-09-09T16:56:56;5.93;;;1.85;;
74849;SDS011;63397;47.480;19.238;2022-09-09T16:59:59;4.32;;;1.90;;
74849;SDS011;63397;47.480;19.238;2022-09-09T17:03:02;4.80;;;1.80;;
74849;SDS011;63397;47.480;19.238;2022-09-09T17:06:08;3.13;;;1.85;;
74849;SDS011;63397;47.480;19.238;2022-09-09T17:09:11;5.40;;;1.63;;
74849;SDS011;63397;47.480;19.238;2022-09-09T17:12:13;4.20;;;1.95;;
74849;SDS011;63397;47.480;19.238;2022-09-09T17:15:15;7.47;;;2.08;;
74849;SDS011;63397;47.480;19.238;2022-09-09T17:18:18;5.07;;;1.92;;
74849;SDS011;63397;47.480;19.238;2022-09-09T17:21:21;4.03;;;2.05;;
74849;SDS011;63397;47.480;19.238;2022-09-09T17:24:24;4.33;;;1.80;;
74849;SDS011;63397;47.480;19.238;2022-09-09T17:27:27;4.03;;;2.10;;
74849;SDS011;63397;47.480;19.238;2022-09-09T17:30:34;4.25;;;2.33;;
74849;SDS011;63397;47.480;19.238;2022-09-09T17:33:37;5.57;;;2.47;;
74849;SDS011;63397;47.480;19.238;2022-09-09T17:36:40;4.47;;;2.30;;
74849;SDS011;63397;47.480;19.238;2022-09-09T17:39:42;4.37;;;2.57;;
74849;SDS011;63397;47.480;19.238;2022-09-09T17:42:44;4.97;;;2.60;;
74849;SDS011;63397;47.480;19.238;2022-09-09T17:45:47;4.18;;;2.50;;
74849;SDS011;63397;47.480;19.238;2022-09-09T17:48:51;5.78;;;2.40;;
74849;SDS011;63397;47.480;19.238;2022-09-09T17:51:55;6.72;;;2.85;;
74849;SDS011;63397;47.480;19.238;2022-09-09T17:54:58;4.97;;;2.43;;
74849;SDS011;63397;47.480;19.238;2022-09-09T17:58:00;7.10;;;2.60;;
74849;SDS011;63397;47.480;19.238;2022-09-09T18:01:06;5.30;;;2.80;;
74849;SDS011;63397;47.480;19.238;2022-09-09T18:04:09;4.95;;;2.80;;
74849;SDS011;63397;47.480;19.238;2022-09-09T18:07:11;6.85;;;2.90;;
74849;SDS011;63397;47.480;19.238;2022-09-09T18:10:15;6.67;;;3.50;;
74849;SDS011;63397;47.480;19.238;2022-09-09T18:13:17;5.57;;;2.78;;
74849;SDS011;63397;47.480;19.238;2022-09-09T18:16:20;7.28;;;2.70;;
74849;SDS011;63397;47.480;19.238;2022-09-09T18:19:26;6.15;;;2.70;;
74849;SDS011;63397;47.480;19.238;2022-09-09T18:22:30;5.97;;;3.20;;
74849;SDS011;63397;47.480;19.238;2022-09-09T18:25:39;5.33;;;2.53;;
74849;SDS011;63397;47.480;19.238;2022-09-09T18:28:42;4.85;;;2.60;;
74849;SDS011;63397;47.480;19.238;2022-09-09T18:31:45;4.57;;;2.70;;
74849;SDS011;63397;47.480;19.238;2022-09-09T18:34:48;5.85;;;2.63;;
74849;SDS011;63397;47.480;19.238;2022-09-09T18:37:56;4.60;;;2.55;;
74849;SDS011;63397;47.480;19.238;2022-09-09T18:40:58;5.93;;;2.30;;
74849;SDS011;63397;47.480;19.238;2022-09-09T18:44:02;5.75;;;2.70;;
74849;SDS011;63397;47.480;19.238;2022-09-09T18:47:05;4.40;;;2.35;;
74849;SDS011;63397;47.480;19.238;2022-09-09T18:50:08;4.63;;;2.40;;
74849;SDS011;63397;47.480;19.238;2022-09-09T18:53:12;5.18;;;2.58;;
74849;SDS011;63397;47.480;19.238;2022-09-09T18:56:16;6.57;;;2.80;;
74849;SDS011;63397;47.480;19.238;2022-09-09T18:59:19;4.40;;;2.45;;
74849;SDS011;63397;47.480;19.238;2022-09-09T19:02:22;6.03;;;2.83;;
74849;SDS011;63397;47.480;19.238;2022-09-09T19:05:24;4.88;;;2.47;;
74849;SDS011;63397;47.480;19.238;2022-09-09T19:08:26;5.22;;;2.90;;
74849;SDS011;63397;47.480;19.238;2022-09-09T19:11:28;6.80;;;3.33;;
74849;SDS011;63397;47.480;19.238;2022-09-09T19:14:31;5.18;;;3.10;;
74849;SDS011;63397;47.480;19.238;2022-09-09T19:17:33;6.72;;;3.55;;
74849;SDS011;63397;47.480;19.238;2022-09-09T19:20:36;6.72;;;4.13;;
74849;SDS011;63397;47.480;19.238;2022-09-09T19:23:39;8.52;;;4.80;;
74849;SDS011;63397;47.480;19.238;2022-09-09T19:26:43;7.83;;;5.00;;
74849;SDS011;63397;47.480;19.238;2022-09-09T19:29:46;9.95;;;5.40;;
74849;SDS011;63397;47.480;19.238;2022-09-09T19:32:49;9.63;;;6.18;;
74849;SDS011;63397;47.480;19.238;2022-09-09T19:35:58;9.38;;;6.40;;
74849;SDS011;63397;47.480;19.238;2022-09-09T19:39:03;10.18;;;7.28;;
74849;SDS011;63397;47.480;19.238;2022-09-09T19:42:06;10.23;;;7.30;;
74849;SDS011;63397;47.480;19.238;2022-09-09T19:45:08;11.23;;;7.57;;
74849;SDS011;63397;47.480;19.238;2022-09-09T19:48:11;12.43;;;8.40;;
74849;SDS011;63397;47.480;19.238;2022-09-09T19:51:16;13.23;;;8.48;;
74849;SDS011;63397;47.480;19.238;2022-09-09T19:54:18;14.57;;;8.65;;
74849;SDS011;63397;47.480;19.238;2022-09-09T19:57:20;14.60;;;9.80;;
74849;SDS011;63397;47.480;19.238;2022-09-09T20:00:24;15.18;;;9.70;;
74849;SDS011;63397;47.480;19.238;2022-09-09T20:03:26;13.57;;;9.43;;
74849;SDS011;63397;47.480;19.238;2022-09-09T20:06:34;14.38;;;9.10;;
74849;SDS011;63397;47.480;19.238;2022-09-09T20:09:37;11.98;;;8.80;;
74849;SDS011;63397;47.480;19.238;2022-09-09T20:12:39;13.33;;;9.10;;
74849;SDS011;63397;47.480;19.238;2022-09-09T20:15:43;13.30;;;9.70;;
74849;SDS011;63397;47.480;19.238;2022-09-09T20:18:49;12.68;;;9.60;;
74849;SDS011;63397;47.480;19.238;2022-09-09T20:21:53;14.25;;;9.25;;
74849;SDS011;63397;47.480;19.238;2022-09-09T20:24:56;14.23;;;9.73;;
74849;SDS011;63397;47.480;19.238;2022-09-09T20:27:58;11.70;;;8.70;;
74849;SDS011;63397;47.480;19.238;2022-09-09T20:31:07;15.10;;;10.13;;
74849;SDS011;63397;47.480;19.238;2022-09-09T20:34:11;13.88;;;9.55;;
74849;SDS011;63397;47.480;19.238;2022-09-09T20:37:14;14.52;;;10.00;;
74849;SDS011;63397;47.480;19.238;2022-09-09T20:40:17;13.80;;;9.35;;
74849;SDS011;63397;47.480;19.238;2022-09-09T20:43:21;12.00;;;8.47;;
74849;SDS011;63397;47.480;19.238;2022-09-09T20:46:24;13.07;;;8.85;;
74849;SDS011;63397;47.480;19.238;2022-09-09T20:49:27;11.02;;;8.30;;
74849;SDS011;63397;47.480;19.238;2022-09-09T20:52:30;12.88;;;9.18;;
74849;SDS011;63397;47.480;19.238;2022-09-09T20:55:32;13.55;;;8.52;;
74849;SDS011;63397;47.480;19.238;2022-09-09T20:58:35;13.43;;;8.80;;
74849;SDS011;63397;47.480;19.238;2022-09-09T21:01:38;13.98;;;8.57;;
74849;SDS011;63397;47.480;19.238;2022-09-09T21:04:40;12.13;;;8.15;;
74849;SDS011;63397;47.480;19.238;2022-09-09T21:07:44;11.57;;;7.80;;
74849;SDS011;63397;47.480;19.238;2022-09-09T21:10:47;12.48;;;8.40;;
74849;SDS011;63397;47.480;19.238;2022-09-09T21:13:49;11.50;;;7.40;;
74849;SDS011;63397;47.480;19.238;2022-09-09T21:16:52;12.10;;;7.78;;
74849;SDS011;63397;47.480;19.238;2022-09-09T21:19:55;12.23;;;7.63;;
74849;SDS011;63397;47.480;19.238;2022-09-09T21:22:58;10.85;;;7.30;;
74849;SDS011;63397;47.480;19.238;2022-09-09T21:26:01;11.30;;;7.63;;
74849;SDS011;63397;47.480;19.238;2022-09-09T21:29:03;11.93;;;7.37;;
74849;SDS011;63397;47.480;19.238;2022-09-09T21:32:05;12.23;;;7.30;;
74849;SDS011;63397;47.480;19.238;2022-09-09T21:35:07;12.07;;;7.57;;
74849;SDS011;63397;47.480;19.238;2022-09-09T21:38:14;11.15;;;7.43;;
74849;SDS011;63397;47.480;19.238;2022-09-09T21:41:17;10.98;;;7.22;;
74849;SDS011;63397;47.480;19.238;2022-09-09T21:44:20;11.40;;;7.70;;
74849;SDS011;63397;47.480;19.238;2022-09-09T21:47:22;10.20;;;7.35;;
74849;SDS011;63397;47.480;19.238;2022-09-09T21:50:25;10.75;;;7.35;;
74849;SDS011;63397;47.480;19.238;2022-09-09T21:53:29;10.75;;;7.78;;
74849;SDS011;63397;47.480;19.238;2022-09-09T21:56:32;12.95;;;8.50;;
74849;SDS011;63397;47.480;19.238;2022-09-09T21:59:34;13.17;;;8.13;;
74849;SDS011;63397;47.480;19.238;2022-09-09T22:02:36;11.77;;;8.07;;
74849;SDS011;63397;47.480;19.238;2022-09-09T22:05:43;11.02;;;7.57;;
74849;SDS011;63397;47.480;19.238;2022-09-09T22:08:45;12.18;;;8.38;;
74849;SDS011;63397;47.480;19.238;2022-09-09T22:11:47;11.43;;;7.75;;
74849;SDS011;63397;47.480;19.238;2022-09-09T22:14:50;13.77;;;8.63;;
74849;SDS011;63397;47.480;19.238;2022-09-09T22:17:54;13.50;;;8.20;;
74849;SDS011;63397;47.480;19.238;2022-09-09T22:20:56;12.95;;;8.73;;
74849;SDS011;63397;47.480;19.238;2022-09-09T22:24:01;13.80;;;8.73;;
74849;SDS011;63397;47.480;19.238;2022-09-09T22:27:04;13.18;;;8.25;;
74849;SDS011;63397;47.480;19.238;2022-09-09T22:30:06;13.97;;;9.00;;
74849;SDS011;63397;47.480;19.238;2022-09-09T22:33:09;12.95;;;8.57;;
74849;SDS011;63397;47.480;19.238;2022-09-09T22:36:12;12.07;;;8.13;;
74849;SDS011;63397;47.480;19.238;2022-09-09T22:39:14;11.68;;;7.47;;
74849;SDS011;63397;47.480;19.238;2022-09-09T22:42:17;13.50;;;8.80;;
74849;SDS011;63397;47.480;19.238;2022-09-09T22:45:19;13.03;;;8.30;;
74849;SDS011;63397;47.480;19.238;2022-09-09T22:48:22;14.02;;;8.98;;
74849;SDS011;63397;47.480;19.238;2022-09-09T22:51:25;13.48;;;8.82;;
74849;SDS011;63397;47.480;19.238;2022-09-09T22:54:27;16.05;;;9.45;;
74849;SDS011;63397;47.480;19.238;2022-09-09T22:57:29;14.38;;;9.25;;
74849;SDS011;63397;47.480;19.238;2022-09-09T23:00:32;17.10;;;10.63;;
74849;SDS011;63397;47.480;19.238;2022-09-09T23:03:34;17.45;;;11.00;;
74849;SDS011;63397;47.480;19.238;2022-09-09T23:06:36;18.35;;;10.45;;
74849;SDS011;63397;47.480;19.238;2022-09-09T23:09:40;17.83;;;10.32;;
74849;SDS011;63397;47.480;19.238;2022-09-09T23:12:43;15.88;;;10.68;;
74849;SDS011;63397;47.480;19.238;2022-09-09T23:15:45;18.07;;;10.90;;
74849;SDS011;63397;47.480;19.238;2022-09-09T23:18:48;18.27;;;10.55;;
74849;SDS011;63397;47.480;19.238;2022-09-09T23:21:51;17.00;;;10.57;;
74849;SDS011;63397;47.480;19.238;2022-09-09T23:24:54;15.23;;;9.85;;
74849;SDS011;63397;47.480;19.238;2022-09-09T23:27:57;18.60;;;11.52;;
74849;SDS011;63397;47.480;19.238;2022-09-09T23:30:59;18.67;;;11.20;;
74849;SDS011;63397;47.480;19.238;2022-09-09T23:34:01;21.17;;;11.70;;
74849;SDS011;63397;47.480;19.238;2022-09-09T23:37:03;18.40;;;11.68;;
74849;SDS011;63397;47.480;19.238;2022-09-09T23:40:06;20.80;;;12.80;;
74849;SDS011;63397;47.480;19.238;2022-09-09T23:43:08;20.60;;;11.65;;
74849;SDS011;63397;47.480;19.238;2022-09-09T23:46:12;21.03;;;11.43;;
74849;SDS011;63397;47.480;19.238;2022-09-09T23:49:15;14.82;;;9.38;;
74849;SDS011;63397;47.480;19.238;2022-09-09T23:52:17;15.43;;;8.98;;
74849;SDS011;63397;47.480;19.238;2022-09-09T23:55:20;13.18;;;8.63;;
74849;SDS011;63397;47.480;19.238;2022-09-09T23:58:24;14.07;;;8.38;;
